RJOKRJOO

Guest
Details From RJOK - KOCHI
To RJOO - OSAKA INTL
Flight Number -
Tags generated
Created
Modified
Stats Distance 115 nm / 213 km
Max Altitude 21,000 ft / 6,401 m
Waypoints 4
Social Downloads 1
Likes 0
Share VATSIM

Download

Looking for another format? Having issues loading an existing format? Contact us
Advertisement - Login to hide

Notes

Basic altitude profile: - Ascent Rate: 2500ft/min - Ascent Speed: 250kts - Cruise Altitude: 35000ft - Cruise Speed: 420kts - Descent Rate: 1500ft/min - Descent Speed: 250kts Options: - Use NATs: yes - Use PACOTS: yes - Use low airways: yes - Use high airways: yes

Route

RJOK AJE Y50 PROOF RJOO

ID Type Via Altitude Latitude Longitude Leg Dist Tot Dist Heading (true) Name
O RJOK APT - 0 ft / 0 m 33.54602˚ 133.66940˚ - 0 nm - KOCHI
AJE VOR - 9,100 ft / 2,774 m 34.27030˚ 134.71294˚ 67 nm 67 nm 50° / 50° AWAJI VOR-DME
PROOF FIX Y50 (AWY-LO) 21,000 ft / 6,401 m 34.38135˚ 134.87303˚ 10 nm 78 nm 50° / 50° -
O RJOO APT - 0 ft / 0 m 34.78560˚ 135.43802˚ 37 nm 115 nm 49° / 49° OSAKA INTL

Altitude Profile

Advertisement - Login to hide

RJOK

Details ICAO RJOK (KCZ)
Name KOCHI
Region Japan
Timezone Asia/Tokyo (UTC+9.0)
Stats Elevation 42 ft / 13 m (AMSL)
Location 33.546023° 133.669396°
Runways 1
Magnetic Variation 7.392° W

METAR

Not found

TAF

TAF RJOK 171105Z 1712/1818 33006KT CAVOK BECMG 1800/1803 20006KT BECMG 1806/1809 35008KT

Decode

Departure Runways

ID Width Length Bearing (true) Bearing (mag) Surface Threshold Offset Overrun Length
14 148 ft / 45 m 8,204 ft / 2,501 m 130.63° 138.02° Asphalt 0 ft / 0 m 200 ft / 61 m
32 148 ft / 45 m 8,204 ft / 2,501 m 310.64° 318.03° Asphalt 0 ft / 0 m 200 ft / 61 m

RJOO

Details ICAO RJOO (ITM)
Name OSAKA INTL
Region Japan
Timezone Asia/Tokyo (UTC+9.0)
Stats Elevation 50 ft / 15 m (AMSL)
Location 34.785603° 135.438019°
Runways 2
Magnetic Variation 7.678° W

METAR

Not found

TAF

TAF RJOO 171105Z 1712/1818 32004KT 9999 FEW025 SCT045

Decode

Destination Runways

ID Width Length Bearing (true) Bearing (mag) Surface Threshold Offset Overrun Length
14L 150 ft / 46 m 5,999 ft / 1,829 m 135.13° 142.81° Asphalt 0 ft / 0 m 678 ft / 207 m
14R 200 ft / 61 m 9,846 ft / 3,001 m 135.13° 142.81° Concrete 0 ft / 0 m 240 ft / 73 m
32L 200 ft / 61 m 9,846 ft / 3,001 m 315.15° 322.83° Concrete 0 ft / 0 m 249 ft / 76 m
32R 150 ft / 46 m 5,999 ft / 1,829 m 315.14° 322.82° Asphalt 0 ft / 0 m 571 ft / 174 m

Approach Navaids

Runway Type Ident Frequency Range Bearing (true) Bearing (mag) Slope Elevation
32L Localiser ISK 110.10 MHz 18 nm / 33 km 315.13° 322.81° - 50 ft / 15 m (AMSL)
32L Glidescope ISK 110.10 MHz 10 nm / 19 km 315.14° 322.82° 3.00° 54 ft / 16 m (AMSL)

Popular Alternatives